Time;durP1;ratioP1;P1;durP2;ratioP2;P2;SDS_P1;SDS_P2;PMS_P1;PMS_P2;Temp;Humidity;BMP_temperature;BMP_pressure;BME280_temperature;BME280_humidity;BME280_pressure;Samples;Min_cycle;Max_cycle;Signal;HPM_P1;HPM_P2
2023/08/10 00:01:34;;;;;;;;;;;;;;;24.05;49.72;100929.38;7396398;19;1865;-40
2023/08/10 00:04:04;;;;;;;;;;;;;;;24.05;49.82;100933.94;7395846;19;1733;-40
2023/08/10 00:06:32;;;;;;;;;;;;;;;24.04;49.96;100930.41;7394883;19;1788;-40
2023/08/10 00:09:00;;;;;;;;;;;;;;;24.03;50.09;100947.63;7395959;19;1805;-40
2023/08/10 00:11:31;;;;;;;;;;;;;;;24.03;50.24;100934.13;7396893;19;1835;-40
2023/08/10 00:13:59;;;;;;;;;;;;;;;24.01;49.97;100926.19;7397200;19;1531;-40
2023/08/10 00:16:28;;;;;;;;;;;;;;;24.02;50.18;100930.56;7395642;19;1464;-40
2023/08/10 00:18:56;;;;;;;;;;;;;;;23.96;50.30;100925.00;7401117;19;1689;-40
2023/08/10 00:21:24;;;;;;;;;;;;;;;23.93;50.32;100920.75;7403765;19;1855;-40
2023/08/10 00:23:55;;;;;;;;;;;;;;;24.02;50.29;100924.34;7403865;19;1864;-40
2023/08/10 00:26:23;;;;;;;;;;;;;;;23.95;50.31;100912.47;7404416;19;1746;-40
2023/08/10 00:28:55;;;;;;;;;;;;;;;24.04;50.05;100921.47;7403827;19;2033;-40
2023/08/10 00:31:23;;;;;;;;;;;;;;;24.08;50.32;100928.25;7403371;19;1931;-40
2023/08/10 00:33:51;;;;;;;;;;;;;;;24.02;50.50;100924.34;7404002;19;1840;-40
2023/08/10 00:36:19;;;;;;;;;;;;;;;24.06;50.57;100931.09;7403667;19;1392;-40
2023/08/10 00:38:48;;;;;;;;;;;;;;;23.99;50.45;100921.94;7403684;19;1389;-40
2023/08/10 00:41:16;;;;;;;;;;;;;;;24.02;50.60;100924.34;7402625;19;1837;-40
2023/08/10 00:43:44;;;;;;;;;;;;;;;24.02;50.52;100927.03;7403479;19;1130;-40
2023/08/10 00:46:16;;;;;;;;;;;;;;;24.01;50.61;100928.03;7403956;19;1578;-40
2023/08/10 00:48:44;;;;;;;;;;;;;;;24.08;50.51;100926.38;7403163;19;1935;-40
2023/08/10 00:51:12;;;;;;;;;;;;;;;24.04;50.38;100916.91;7402767;19;1878;-40
2023/08/10 00:53:41;;;;;;;;;;;;;;;23.99;50.46;100905.75;7399469;19;1141;-40
2023/08/10 00:56:12;;;;;;;;;;;;;;;23.94;50.50;100906.25;7402755;19;1891;-40
2023/08/10 00:58:40;;;;;;;;;;;;;;;24.06;50.58;100914.06;7402772;19;1954;-40
2023/08/10 01:01:09;;;;;;;;;;;;;;;24.01;50.70;100912.69;7402379;19;1871;-40
2023/08/10 01:03:39;;;;;;;;;;;;;;;24.00;50.54;100908.28;7403064;19;1784;-40
2023/08/10 01:06:12;;;;;;;;;;;;;;;23.98;50.47;100901.38;7403006;19;1745;-41
2023/08/10 01:08:44;;;;;;;;;;;;;;;24.00;50.70;100913.69;7401957;19;1733;-40
2023/08/10 01:11:17;;;;;;;;;;;;;;;23.94;50.55;100916.22;7402417;19;1683;-41
2023/08/10 01:13:49;;;;;;;;;;;;;;;23.92;50.68;100910.97;7402389;19;1709;-40
2023/08/10 01:16:19;;;;;;;;;;;;;;;23.93;50.94;100922.59;7401889;19;1733;-40
2023/08/10 01:18:52;;;;;;;;;;;;;;;23.89;50.80;100922.09;7401417;19;1848;-40
2023/08/10 01:21:28;;;;;;;;;;;;;;;23.99;51.10;100921.94;7400198;19;1853;-40
2023/08/10 01:23:58;;;;;;;;;;;;;;;23.84;51.25;100915.50;7401924;19;1856;-40
2023/08/10 01:26:30;;;;;;;;;;;;;;;23.96;50.86;100908.78;7402376;19;1781;-40
2023/08/10 01:28:59;;;;;;;;;;;;;;;23.87;51.07;100917.88;7402009;19;1725;-41
2023/08/10 01:31:28;;;;;;;;;;;;;;;23.85;50.89;100904.53;7402997;19;2049;-40
2023/08/10 01:33:56;;;;;;;;;;;;;;;23.89;50.97;100913.16;7398881;19;1897;-40
2023/08/10 01:36:24;;;;;;;;;;;;;;;23.89;50.95;100929.34;7402247;19;1839;-40
2023/08/10 01:38:53;;;;;;;;;;;;;;;23.77;51.13;100913.44;7401255;19;1809;-40
2023/08/10 01:41:21;;;;;;;;;;;;;;;23.86;51.00;100918.88;7402023;19;1861;-40
2023/08/10 01:43:52;;;;;;;;;;;;;;;23.77;50.82;100917.97;7402856;19;1129;-40
2023/08/10 01:46:22;;;;;;;;;;;;;;;23.80;50.97;100921.22;7402682;19;970;-40
2023/08/10 01:48:53;;;;;;;;;;;;;;;23.77;51.21;100917.97;7401379;19;1927;-40
2023/08/10 01:51:24;;;;;;;;;;;;;;;23.76;50.96;100908.19;7401665;19;1927;-40
2023/08/10 01:53:53;;;;;;;;;;;;;;;23.78;51.27;100892.69;7399903;19;1547;-40
2023/08/10 01:56:22;;;;;;;;;;;;;;;23.80;50.73;100899.63;7401451;19;1819;-40
2023/08/10 01:58:53;;;;;;;;;;;;;;;23.78;51.00;100900.81;7400558;19;1524;-40
2023/08/10 02:01:21;;;;;;;;;;;;;;;23.84;50.90;100894.75;7402566;19;1851;-43
2023/08/10 02:03:49;;;;;;;;;;;;;;;23.87;51.06;100896.25;7401336;19;1019;-40
2023/08/10 02:06:17;;;;;;;;;;;;;;;23.73;51.36;100903.94;7400765;19;1523;-40
2023/08/10 02:08:46;;;;;;;;;;;;;;;23.73;51.50;100914.75;7400428;19;1517;-40
2023/08/10 02:11:14;;;;;;;;;;;;;;;23.81;51.12;100906.72;7397850;19;1445;-40
2023/08/10 02:13:42;;;;;;;;;;;;;;;23.72;51.09;100907.66;7401074;19;1725;-40
2023/08/10 02:16:14;;;;;;;;;;;;;;;23.68;51.32;100914.41;7400496;19;1606;-40
2023/08/10 02:18:42;;;;;;;;;;;;;;;23.59;51.31;100916.22;7399629;19;1740;-40
2023/08/10 02:21:10;;;;;;;;;;;;;;;23.57;51.09;100914.69;7398916;19;1730;-40
2023/08/10 02:23:39;;;;;;;;;;;;;;;23.47;51.21;100909.41;7396259;19;1960;-40
2023/08/10 02:26:07;;;;;;;;;;;;;;;23.53;51.13;100919.56;7399518;19;1765;-40
2023/08/10 02:28:35;;;;;;;;;;;;;;;23.57;50.94;100915.53;7400998;19;1023;-40
2023/08/10 02:31:04;;;;;;;;;;;;;;;23.61;51.31;100922.28;7400820;19;2031;-40
2023/08/10 02:33:35;;;;;;;;;;;;;;;23.52;51.05;100925.97;7396270;19;1469;-40
2023/08/10 02:36:03;;;;;;;;;;;;;;;23.48;51.16;100921.91;7400089;19;1737;-40
2023/08/10 02:38:32;;;;;;;;;;;;;;;23.49;50.88;100925.44;7400413;19;953;-40
2023/08/10 02:41:00;;;;;;;;;;;;;;;23.56;51.02;100930.03;7398296;19;1118;-40
2023/08/10 02:43:28;;;;;;;;;;;;;;;23.63;51.33;100927.53;7397961;19;1871;-40
2023/08/10 02:45:56;;;;;;;;;;;;;;;23.67;50.88;100939.69;7398880;19;1881;-40
2023/08/10 02:48:25;;;;;;;;;;;;;;;23.70;51.04;100931.28;7399548;19;1385;-40
2023/08/10 02:50:56;;;;;;;;;;;;;;;23.57;51.24;100933.59;7398833;19;1749;-40
2023/08/10 02:53:24;;;;;;;;;;;;;;;23.66;51.06;100932.63;7397837;19;1841;-40
2023/08/10 02:55:52;;;;;;;;;;;;;;;23.50;51.25;100940.66;7399532;19;1109;-40
2023/08/10 02:58:23;;;;;;;;;;;;;;;23.43;51.46;100938.56;7400263;19;1911;-40
2023/08/10 03:00:51;;;;;;;;;;;;;;;23.56;51.30;100948.09;7399648;19;1840;-40
2023/08/10 03:03:19;;;;;;;;;;;;;;;23.45;51.63;100951.06;7397279;19;1880;-40
2023/08/10 03:05:48;;;;;;;;;;;;;;;23.56;51.28;100948.94;7399120;19;1750;-40
2023/08/10 03:08:19;;;;;;;;;;;;;;;23.59;51.15;100945.91;7398106;19;1429;-40
2023/08/10 03:10:47;;;;;;;;;;;;;;;23.58;51.20;100941.53;7397487;19;1380;-40
2023/08/10 03:13:15;;;;;;;;;;;;;;;23.60;51.00;100946.78;7398204;19;1742;-40
2023/08/10 03:15:43;;;;;;;;;;;;;;;23.49;51.52;100952.44;7396816;19;1610;-40
2023/08/10 03:18:12;;;;;;;;;;;;;;;23.52;51.22;100950.28;7396953;19;1823;-40
2023/08/10 03:20:40;;;;;;;;;;;;;;;23.40;51.50;100954.25;7398742;19;1110;-40
2023/08/10 03:23:08;;;;;;;;;;;;;;;23.47;51.26;100959.84;7396717;19;1847;-40
2023/08/10 03:25:39;;;;;;;;;;;;;;;23.52;51.09;100960.22;7397941;19;1111;-40
2023/08/10 03:28:08;;;;;;;;;;;;;;;23.48;50.99;100950.75;7397983;19;1797;-40
2023/08/10 03:30:36;;;;;;;;;;;;;;;23.51;51.06;100940.47;7396464;19;1441;-40
2023/08/10 03:33:05;;;;;;;;;;;;;;;23.38;51.67;100949.00;7399482;19;1024;-40
2023/08/10 03:35:34;;;;;;;;;;;;;;;23.30;51.86;100956.19;7398451;19;1863;-40
2023/08/10 03:38:02;;;;;;;;;;;;;;;23.24;52.52;100949.63;7395386;19;1963;-40
2023/08/10 03:40:33;;;;;;;;;;;;;;;23.41;51.98;100959.47;7395600;19;1455;-40
2023/08/10 03:43:04;;;;;;;;;;;;;;;23.63;51.96;100958.09;7396074;19;1866;-40
2023/08/10 03:45:32;;;;;;;;;;;;;;;23.73;51.15;100941.75;7397417;19;1150;-40
2023/08/10 03:48:01;;;;;;;;;;;;;;;23.67;52.41;100946.97;7393581;19;1337;-40
2023/08/10 03:50:29;;;;;;;;;;;;;;;23.66;53.20;100947.97;7397598;19;1100;-41
2023/08/10 03:52:58;;;;;;;;;;;;;;;23.59;53.07;100945.06;7395133;19;1862;-41
2023/08/10 03:55:26;;;;;;;;;;;;;;;23.47;53.19;100949.06;7394823;19;1412;-41
2023/08/10 03:57:55;;;;;;;;;;;;;;;23.48;53.64;100945.38;7397740;19;1067;-40
2023/08/10 04:00:26;;;;;;;;;;;;;;;23.43;53.08;100943.13;7398055;19;948;-41
2023/08/10 04:02:54;;;;;;;;;;;;;;;23.42;53.08;100939.59;7395443;19;1861;-41
2023/08/10 04:05:23;;;;;;;;;;;;;;;23.45;52.58;100945.66;7396778;19;1875;-40
2023/08/10 04:07:51;;;;;;;;;;;;;;;23.45;52.17;100942.97;7395331;19;1833;-41
2023/08/10 04:10:19;;;;;;;;;;;;;;;23.47;51.99;100958.00;7395529;19;1570;-40
2023/08/10 04:12:48;;;;;;;;;;;;;;;23.50;51.89;100962.25;7396098;19;1475;-40
2023/08/10 04:15:16;;;;;;;;;;;;;;;23.48;52.23;100948.06;7395599;19;1850;-40
2023/08/10 04:17:47;;;;;;;;;;;;;;;23.45;52.34;100951.91;7394271;19;1539;-40
2023/08/10 04:20:15;;;;;;;;;;;;;;;23.52;52.40;100947.56;7394213;19;1366;-40
2023/08/10 04:22:43;;;;;;;;;;;;;;;23.60;52.00;100957.56;7393481;19;1837;-40
2023/08/10 04:25:12;;;;;;;;;;;;;;;23.58;52.13;100960.41;7395517;19;1276;-40
2023/08/10 04:27:40;;;;;;;;;;;;;;;23.40;53.23;100947.00;7395323;19;1613;-40
2023/08/10 04:30:09;;;;;;;;;;;;;;;23.52;53.43;100952.97;7394884;19;1327;-40
2023/08/10 04:32:38;;;;;;;;;;;;;;;23.46;53.33;100950.91;7395328;19;1797;-40
2023/08/10 04:35:09;;;;;;;;;;;;;;;23.52;53.29;100942.19;7394105;19;1267;-40
2023/08/10 04:37:37;;;;;;;;;;;;;;;23.79;53.05;100948.38;7395610;19;1653;-40
2023/08/10 04:40:09;;;;;;;;;;;;;;;23.99;52.08;100959.75;7394945;19;1818;-40
2023/08/10 04:42:38;;;;;;;;;;;;;;;23.82;52.78;100948.91;7389994;19;1864;-40
2023/08/10 04:45:09;;;;;;;;;;;;;;;23.79;52.57;100951.91;7395907;19;1796;-40
2023/08/10 04:47:37;;;;;;;;;;;;;;;23.79;52.47;100953.78;7388456;19;1480;-40
2023/08/10 04:50:06;;;;;;;;;;;;;;;23.76;52.52;100949.53;7390917;19;1350;-40
2023/08/10 04:52:38;;;;;;;;;;;;;;;23.61;52.76;100957.38;7393971;19;1475;-40
2023/08/10 04:55:07;;;;;;;;;;;;;;;23.54;53.15;100950.13;7393371;19;1543;-40
2023/08/10 04:57:36;;;;;;;;;;;;;;;23.51;53.10;100958.53;7394750;19;1479;-40
2023/08/10 05:00:09;;;;;;;;;;;;;;;23.33;54.05;100975.63;7389297;19;1792;-40
2023/08/10 05:02:38;;;;;;;;;;;;;;;23.44;53.79;100963.72;7388592;19;1845;-40
2023/08/10 05:05:07;;;;;;;;;;;;;;;23.51;53.69;100966.63;7389165;19;1224;-41
2023/08/10 05:07:38;;;;;;;;;;;;;;;23.52;53.75;100977.25;7395735;19;1586;-40
2023/08/10 05:10:08;;;;;;;;;;;;;;;23.55;53.69;100965.28;7397574;19;1527;-40
2023/08/10 05:12:38;;;;;;;;;;;;;;;23.53;53.82;100964.59;7384701;19;1275;-40
2023/08/10 05:15:08;;;;;;;;;;;;;;;23.56;53.65;100977.78;7395150;19;1546;-40
2023/08/10 05:17:38;;;;;;;;;;;;;;;23.66;53.32;100972.28;7396034;19;1555;-40
2023/08/10 05:20:10;;;;;;;;;;;;;;;23.69;53.06;100970.09;7396555;19;1107;-39
2023/08/10 05:22:41;;;;;;;;;;;;;;;23.80;52.77;100980.63;7389860;19;1849;-40
2023/08/10 05:25:10;;;;;;;;;;;;;;;23.86;52.97;100984.56;7391297;19;1151;-40
2023/08/10 05:27:39;;;;;;;;;;;;;;;23.89;52.91;100983.38;7393873;19;1372;-40
2023/08/10 05:30:08;;;;;;;;;;;;;;;23.92;53.20;100988.47;7393142;19;1651;-40
2023/08/10 05:32:39;;;;;;;;;;;;;;;24.09;52.43;100963.16;7393566;19;1022;-40
2023/08/10 05:35:07;;;;;;;;;;;;;;;24.14;52.22;100979.75;7393427;19;1824;-40
2023/08/10 05:37:38;;;;;;;;;;;;;;;24.01;52.81;100980.22;7262592;19;13085;-40
2023/08/10 05:40:10;;;;;;;;;;;;;;;23.98;53.14;100971.59;7395680;19;1798;-40
2023/08/10 05:42:39;;;;;;;;;;;;;;;23.97;53.16;100976.16;7392842;19;1838;-40
2023/08/10 05:45:09;;;;;;;;;;;;;;;24.06;52.56;100992.41;7392270;19;1952;-40
2023/08/10 05:47:38;;;;;;;;;;;;;;;24.18;52.63;100972.16;7392234;19;1180;-40
2023/08/10 05:50:06;;;;;;;;;;;;;;;23.97;53.04;100972.59;7388351;19;1373;-41
2023/08/10 05:52:34;;;;;;;;;;;;;;;24.20;52.73;100976.38;7391482;19;1794;-40
2023/08/10 05:55:03;;;;;;;;;;;;;;;24.27;52.46;100981.13;7390157;19;1429;-40
2023/08/10 05:57:34;;;;;;;;;;;;;;;24.14;53.36;100971.63;7392952;19;1510;-40
2023/08/10 06:00:02;;;;;;;;;;;;;;;24.15;53.38;100973.34;7392339;19;1967;-40
2023/08/10 06:02:31;;;;;;;;;;;;;;;24.15;53.07;100983.28;7389900;19;1826;-40
2023/08/10 06:04:59;;;;;;;;;;;;;;;24.20;53.06;100976.38;7391700;19;1481;-40
2023/08/10 06:07:27;;;;;;;;;;;;;;;24.28;53.23;100986.38;7394810;19;1728;-40
2023/08/10 06:09:55;;;;;;;;;;;;;;;24.28;53.32;100980.97;7392930;19;1846;-40
2023/08/10 06:12:24;;;;;;;;;;;;;;;24.35;53.14;100983.84;7391384;19;1397;-40
2023/08/10 06:14:55;;;;;;;;;;;;;;;24.42;53.63;100990.28;7392174;19;1468;-40
2023/08/10 06:17:23;;;;;;;;;;;;;;;24.52;52.87;100990.16;7393099;19;1040;-40
2023/08/10 06:19:52;;;;;;;;;;;;;;;24.60;53.45;100991.00;7394242;19;1532;-40
2023/08/10 06:22:21;;;;;;;;;;;;;;;24.54;53.29;100999.78;7391776;19;1718;-40
2023/08/10 06:24:49;;;;;;;;;;;;;;;24.56;52.95;100988.81;7391657;19;1856;-40
2023/08/10 06:27:17;;;;;;;;;;;;;;;24.67;52.08;100977.69;7392227;19;1544;-40
2023/08/10 06:29:46;;;;;;;;;;;;;;;24.69;52.04;100985.63;7392377;19;1385;-40
2023/08/10 06:32:17;;;;;;;;;;;;;;;24.79;50.37;100989.03;7395215;19;1137;-40
2023/08/10 06:34:45;;;;;;;;;;;;;;;24.79;51.33;100980.91;7391634;19;1953;-40
2023/08/10 06:37:15;;;;;;;;;;;;;;;24.83;51.03;100987.66;7393096;19;1711;-40
2023/08/10 06:39:46;;;;;;;;;;;;;;;24.90;51.08;100991.38;7393688;19;1822;-40
2023/08/10 06:42:14;;;;;;;;;;;;;;;25.04;50.66;100983.59;7392126;19;1767;-40
2023/08/10 06:44:43;;;;;;;;;;;;;;;24.92;50.98;100993.91;7391312;19;1857;-40
2023/08/10 06:47:11;;;;;;;;;;;;;;;25.08;50.64;100990.34;7393652;19;1884;-40
2023/08/10 06:49:42;;;;;;;;;;;;;;;25.09;50.48;100987.50;7393556;19;1849;-40
2023/08/10 06:52:10;;;;;;;;;;;;;;;24.97;48.96;100995.09;7390256;19;1746;-40
2023/08/10 06:54:38;;;;;;;;;;;;;;;25.08;49.69;100990.34;7389809;19;1229;-40
2023/08/10 06:57:07;;;;;;;;;;;;;;;25.19;49.42;100996.28;7390388;19;1888;-40
2023/08/10 06:59:35;;;;;;;;;;;;;;;25.15;49.47;100992.22;7393157;19;1886;-40
2023/08/10 07:02:04;;;;;;;;;;;;;;;25.17;49.77;100990.19;7393125;19;1706;-40
2023/08/10 07:04:32;;;;;;;;;;;;;;;25.18;49.40;101001.84;7391730;19;1874;-40
2023/08/10 07:07:03;;;;;;;;;;;;;;;25.14;49.79;100990.50;7391061;19;1477;-40
2023/08/10 07:09:31;;;;;;;;;;;;;;;25.24;49.37;100997.66;7390785;19;1552;-41
2023/08/10 07:11:59;;;;;;;;;;;;;;;25.20;49.95;101002.53;7391752;19;1933;-40
2023/08/10 07:14:27;;;;;;;;;;;;;;;25.16;50.02;100995.75;7391781;19;1610;-40
2023/08/10 07:16:56;;;;;;;;;;;;;;;25.12;50.36;101005.22;7390105;19;1858;-40
2023/08/10 07:19:25;;;;;;;;;;;;;;;25.08;50.04;101006.59;7390492;19;1838;-40
2023/08/10 07:21:55;;;;;;;;;;;;;;;25.08;49.93;101001.19;7390273;19;1026;-40
2023/08/10 07:24:26;;;;;;;;;;;;;;;25.08;49.84;101012.00;7389603;19;1856;-40
2023/08/10 07:26:56;;;;;;;;;;;;;;;25.14;49.16;101008.63;7386581;19;1584;-40
2023/08/10 07:29:24;;;;;;;;;;;;;;;25.22;49.63;100996.97;7390968;19;1804;-40
2023/08/10 07:31:55;;;;;;;;;;;;;;;25.27;49.43;101000.00;7390866;19;1695;-40
2023/08/10 07:34:23;;;;;;;;;;;;;;;25.30;49.41;100995.09;7389186;19;1766;-41
2023/08/10 07:36:52;;;;;;;;;;;;;;;25.32;49.21;101003.88;7386454;19;1382;-41
2023/08/10 07:39:20;;;;;;;;;;;;;;;25.27;49.60;101006.28;7387915;19;1477;-40
2023/08/10 07:41:52;;;;;;;;;;;;;;;25.25;49.54;101004.72;7386520;19;1520;-40
2023/08/10 07:44:21;;;;;;;;;;;;;;;25.16;49.85;101002.00;7387254;19;1904;-40
2023/08/10 07:46:49;;;;;;;;;;;;;;;25.26;50.24;100999.16;7388410;19;1342;-40
2023/08/10 07:49:17;;;;;;;;;;;;;;;25.28;49.80;100997.13;7389426;19;1156;-40
2023/08/10 07:51:47;;;;;;;;;;;;;;;25.38;48.83;100986.94;7387848;19;1194;-40
2023/08/10 07:54:15;;;;;;;;;;;;;;;25.28;49.47;100999.81;7380833;19;1623;-40
2023/08/10 07:56:44;;;;;;;;;;;;;;;25.33;49.46;101000.16;7384984;19;1603;-40
2023/08/10 07:59:16;;;;;;;;;;;;;;;25.34;50.07;100985.59;7382884;19;1338;-40
2023/08/10 08:01:44;;;;;;;;;;;;;;;25.41;49.92;100985.78;7386225;19;1207;-41
2023/08/10 08:04:13;;;;;;;;;;;;;;;25.44;49.78;100998.13;7381116;19;1849;-40
2023/08/10 08:06:41;;;;;;;;;;;;;;;25.45;49.91;100989.00;7385842;19;1820;-40
2023/08/10 08:09:12;;;;;;;;;;;;;;;25.46;50.25;100982.53;7387238;19;1514;-40
2023/08/10 08:11:40;;;;;;;;;;;;;;;25.44;50.29;100977.28;7387040;19;1124;-41
2023/08/10 08:14:08;;;;;;;;;;;;;;;25.46;50.43;100982.53;7384987;19;1270;-41
2023/08/10 08:16:39;;;;;;;;;;;;;;;25.46;50.66;100982.53;7386022;19;1496;-40
2023/08/10 08:19:08;;;;;;;;;;;;;;;25.43;50.66;100978.31;7384084;19;1533;-40
2023/08/10 08:21:36;;;;;;;;;;;;;;;25.45;50.89;100970.03;7385372;19;1362;-41
2023/08/10 08:24:04;;;;;;;;;;;;;;;25.47;50.90;100971.53;7384747;19;1841;-40
2023/08/10 08:26:33;;;;;;;;;;;;;;;25.48;50.86;100970.50;7385142;19;1715;-40
2023/08/10 08:29:02;;;;;;;;;;;;;;;25.45;51.12;100960.03;7386134;19;1029;-41
2023/08/10 08:31:30;;;;;;;;;;;;;;;25.58;50.60;100959.47;7386506;19;1630;-40
2023/08/10 08:34:01;;;;;;;;;;;;;;;25.53;51.09;100961.88;7388151;19;1576;-40
2023/08/10 08:36:29;;;;;;;;;;;;;;;25.53;50.96;100961.88;7386293;19;1196;-40
2023/08/10 08:38:57;;;;;;;;;;;;;;;25.50;51.02;100968.47;7387099;19;1580;-49
2023/08/10 08:41:28;;;;;;;;;;;;;;;25.49;51.24;100958.69;7393097;19;1089;-40
2023/08/10 08:43:57;;;;;;;;;;;;;;;25.50;51.42;100952.22;7393158;19;1841;-41
2023/08/10 08:46:27;;;;;;;;;;;;;;;25.51;51.30;100953.09;7392991;19;1429;-41
2023/08/10 08:48:57;;;;;;;;;;;;;;;25.52;51.45;100954.78;7393864;19;1983;-40
2023/08/10 08:51:28;;;;;;;;;;;;;;;25.52;51.27;100960.19;7393181;19;1251;-40
2023/08/10 08:53:57;;;;;;;;;;;;;;;25.48;51.41;100954.25;7392786;19;1488;-40
2023/08/10 08:56:26;;;;;;;;;;;;;;;25.60;51.31;100938.50;7392383;19;1373;-40
2023/08/10 08:58:54;;;;;;;;;;;;;;;25.37;52.01;100951.94;7392783;19;1433;-41
2023/08/10 09:01:23;;;;;;;;;;;;;;;25.44;51.83;100949.38;7394218;19;1204;-40
2023/08/10 09:03:51;;;;;;;;;;;;;;;25.41;52.25;100931.63;7390493;19;1886;-40
2023/08/10 09:06:19;;;;;;;;;;;;;;;25.42;52.07;100943.28;7392448;19;1389;-41
2023/08/10 09:08:50;;;;;;;;;;;;;;;25.46;52.00;100950.06;7394640;19;1374;-41
2023/08/10 09:11:19;;;;;;;;;;;;;;;25.52;52.21;100938.53;7391776;19;1551;-40
2023/08/10 09:14:06;;;;;;;;;;;;;;;25.61;52.15;100951.03;7392661;19;1342;-40
2023/08/10 09:16:35;;;;;;;;;;;;;;;25.59;51.95;100934.09;7394537;19;1226;-40
2023/08/10 09:19:04;;;;;;;;;;;;;;;25.50;52.04;100941.41;7394080;19;1282;-40
2023/08/10 09:21:35;;;;;;;;;;;;;;;25.43;52.72;100924.19;7390968;19;1314;-40
2023/08/10 09:24:10;;;;;;;;;;;;;;;25.37;52.49;100946.53;7392194;19;1846;-40
2023/08/10 09:26:41;;;;;;;;;;;;;;;25.40;52.71;100951.59;7392158;19;1260;-40
2023/08/10 09:29:09;;;;;;;;;;;;;;;25.36;53.00;100942.97;7391499;19;1486;-41
2023/08/10 09:31:37;;;;;;;;;;;;;;;25.44;52.63;100933.13;7390901;19;2065;-40
2023/08/10 09:34:13;;;;;;;;;;;;;;;25.33;52.76;100943.31;7391712;19;1755;-40
2023/08/10 09:36:41;;;;;;;;;;;;;;;25.35;52.82;100938.59;7390868;19;1829;-40
2023/08/10 09:39:18;;;;;;;;;;;;;;;25.30;53.45;100930.13;7392807;19;1328;-40
2023/08/10 09:41:52;;;;;;;;;;;;;;;25.26;53.51;100950.44;7393336;19;1470;-40
2023/08/10 09:44:21;;;;;;;;;;;;;;;25.22;53.52;100922.03;7392844;19;1867;-40
2023/08/10 09:46:58;;;;;;;;;;;;;;;25.25;53.28;100931.66;7395174;19;996;-40
2023/08/10 09:49:26;;;;;;;;;;;;;;;25.18;53.29;100926.91;7393974;19;1888;-40
2023/08/10 09:51:59;;;;;;;;;;;;;;;25.17;54.35;100905.44;7389936;19;1833;-40
2023/08/10 09:54:30;;;;;;;;;;;;;;;25.21;54.01;100909.50;7389098;19;1501;-40
2023/08/10 09:56:59;;;;;;;;;;;;;;;25.17;53.76;100895.47;7392925;19;1825;-40
2023/08/10 09:59:28;;;;;;;;;;;;;;;25.15;53.99;100899.38;7393826;19;1422;-40
2023/08/10 10:01:57;;;;;;;;;;;;;;;25.27;53.85;100897.13;7391866;19;1534;-40
2023/08/10 10:04:26;;;;;;;;;;;;;;;25.21;53.74;100901.38;7390372;19;1846;-40
2023/08/10 10:06:55;;;;;;;;;;;;;;;25.17;54.20;100884.63;7389922;19;1754;-40
2023/08/10 10:09:23;;;;;;;;;;;;;;;25.15;54.53;100892.09;7390439;19;1576;-40
2023/08/10 10:11:56;;;;;;;;;;;;;;;25.23;54.47;100877.72;7388817;19;1479;-43
2023/08/10 10:14:24;;;;;;;;;;;;;;;25.36;54.10;100893.41;7390799;19;1370;-43
2023/08/10 10:16:54;;;;;;;;;;;;;;;25.25;54.36;100877.53;7387756;19;1271;-43
2023/08/10 10:19:22;;;;;;;;;;;;;;;25.30;54.30;100880.56;7390373;19;1156;-43
2023/08/10 10:21:51;;;;;;;;;;;;;;;25.36;54.11;100875.28;7394219;19;1475;-43
2023/08/10 10:24:21;;;;;;;;;;;;;;;25.33;54.07;100886.47;7391985;19;1946;-44
2023/08/10 10:27:04;;;;;;;;;;;;;;;25.36;54.03;100891.53;7394823;19;1583;-44
2023/08/10 10:29:45;;;;;;;;;;;;;;;25.31;54.40;100866.03;7394604;19;1912;-44
2023/08/10 10:32:14;;;;;;;;;;;;;;;25.33;54.26;100885.66;7393199;19;1837;-44
2023/08/10 10:34:43;;;;;;;;;;;;;;;25.28;54.48;100861.78;7391503;19;1426;-47
2023/08/10 10:37:14;;;;;;;;;;;;;;;25.32;54.25;100865.81;7393801;19;1330;-44
2023/08/10 10:39:43;;;;;;;;;;;;;;;25.33;54.15;100864.81;7393270;19;1228;-44
2023/08/10 10:42:14;;;;;;;;;;;;;;;25.29;54.35;100868.91;7393028;19;1406;-47
2023/08/10 10:44:57;;;;;;;;;;;;;;;25.32;54.63;100865.81;7393068;19;1850;-43
2023/08/10 10:47:35;;;;;;;;;;;;;;;25.30;54.73;100858.91;7392731;19;1493;-43
2023/08/10 10:50:15;;;;;;;;;;;;;;;25.32;54.48;100862.28;7389760;19;1449;-48
2023/08/10 10:52:51;;;;;;;;;;;;;;;25.29;54.46;100860.78;7392150;19;1228;-44
2023/08/10 10:55:19;;;;;;;;;;;;;;;25.30;54.59;100857.03;7390098;19;1291;-49
2023/08/10 10:57:51;;;;;;;;;;;;;;;25.32;54.22;100843.34;7388630;19;1505;-43
2023/08/10 11:00:20;;;;;;;;;;;;;;;25.30;54.36;100840.78;7393129;19;1232;-43
2023/08/10 11:02:49;;;;;;;;;;;;;;;25.26;54.45;100842.16;7389976;19;1528;-49
2023/08/10 11:05:17;;;;;;;;;;;;;;;25.28;54.49;100847.41;7387804;19;1861;-44
2023/08/10 11:07:47;;;;;;;;;;;;;;;25.33;54.08;100845.88;7389670;19;1790;-45
2023/08/10 11:10:16;;;;;;;;;;;;;;;25.30;54.21;100838.09;7389618;19;1862;-44
2023/08/10 11:12:45;;;;;;;;;;;;;;;25.29;53.95;100827.47;7389450;19;1678;-44
2023/08/10 11:15:16;;;;;;;;;;;;;;;25.30;54.22;100816.44;7392674;19;1707;-44
2023/08/10 11:17:49;;;;;;;;;;;;;;;25.34;53.97;100825.88;7391414;19;1227;-48
2023/08/10 11:20:18;;;;;;;;;;;;;;;25.34;54.06;100817.78;7390614;19;1210;-44
2023/08/10 11:22:47;;;;;;;;;;;;;;;25.39;53.61;100822.69;7391307;19;1155;-43
2023/08/10 11:25:16;;;;;;;;;;;;;;;25.37;53.78;100838.25;7392414;19;1845;-48
2023/08/10 11:27:45;;;;;;;;;;;;;;;25.36;53.75;100837.38;7391439;19;1453;-44
2023/08/10 11:30:19;;;;;;;;;;;;;;;25.33;54.24;100818.81;7393731;19;1634;-43
2023/08/10 11:32:48;;;;;;;;;;;;;;;25.35;53.89;100814.06;7389717;19;1518;-56
2023/08/10 11:35:19;;;;;;;;;;;;;;;25.30;54.06;100800.19;7389983;19;1552;-40
2023/08/10 11:37:48;;;;;;;;;;;;;;;25.25;53.94;100793.63;7386438;19;1809;-41
2023/08/10 11:40:18;;;;;;;;;;;;;;;25.30;54.02;100805.59;7381614;19;1544;-41
2023/08/10 11:42:47;;;;;;;;;;;;;;;25.34;53.91;100812.34;7382497;19;1584;-41
2023/08/10 11:45:20;;;;;;;;;;;;;;;25.32;54.04;100806.28;7390182;19;1853;-41
2023/08/10 11:47:49;;;;;;;;;;;;;;;25.30;53.91;100802.06;7390342;19;1417;-41
2023/08/10 11:50:17;;;;;;;;;;;;;;;25.32;53.99;100800.03;7388275;19;1469;-41
2023/08/10 11:52:46;;;;;;;;;;;;;;;25.27;53.96;100795.16;7384813;19;3110;-41
2023/08/10 11:55:16;;;;;;;;;;;;;;;25.28;53.94;100796.00;7388557;19;1501;-41
2023/08/10 11:57:45;;;;;;;;;;;;;;;25.25;53.91;100802.59;7389987;19;1730;-41
2023/08/10 12:00:21;;;;;;;;;;;;;;;25.26;54.12;100809.69;7389712;19;1390;-41
2023/08/10 12:03:00;;;;;;;;;;;;;;;25.28;53.74;100802.22;7389087;19;1722;-41
2023/08/10 12:05:41;;;;;;;;;;;;;;;25.33;53.17;100807.97;7386146;19;1851;-41
2023/08/10 12:08:11;;;;;;;;;;;;;;;25.28;53.09;100799.53;7389605;19;1417;-41
2023/08/10 12:10:41;;;;;;;;;;;;;;;25.32;52.84;100792.75;7390344;19;984;-41
2023/08/10 12:13:10;;;;;;;;;;;;;;;25.33;51.95;100794.44;7390603;19;1615;-41
2023/08/10 12:15:46;;;;;;;;;;;;;;;25.28;51.73;100796.81;7388373;19;1532;-41
2023/08/10 12:18:15;;;;;;;;;;;;;;;25.32;51.29;100810.84;7387526;19;1492;-41
2023/08/10 12:20:43;;;;;;;;;;;;;;;25.24;50.67;100811.72;7388562;19;1794;-41
2023/08/10 12:23:12;;;;;;;;;;;;;;;25.24;50.91;100795.50;7387879;19;1810;-41
2023/08/10 12:25:41;;;;;;;;;;;;;;;25.26;50.73;100793.44;7386084;19;1850;-41
2023/08/10 12:28:09;;;;;;;;;;;;;;;25.25;50.65;100782.78;7387472;19;1561;-41
2023/08/10 12:30:37;;;;;;;;;;;;;;;25.25;50.19;100791.78;7385208;19;1389;-41
2023/08/10 12:33:10;;;;;;;;;;;;;;;25.28;50.19;100785.16;7388545;19;1465;-41
2023/08/10 12:35:38;;;;;;;;;;;;;;;25.28;49.67;100790.56;7387582;19;1933;-41
2023/08/10 12:38:07;;;;;;;;;;;;;;;25.28;48.89;100790.56;7388054;19;1767;-41
2023/08/10 12:40:36;;;;;;;;;;;;;;;25.30;48.87;100792.06;7387851;19;1417;-41
2023/08/10 12:43:05;;;;;;;;;;;;;;;25.28;48.58;100785.16;7386840;19;1735;-41
2023/08/10 12:45:33;;;;;;;;;;;;;;;25.31;48.93;100774.81;7387279;19;1855;-41
2023/08/10 12:48:02;;;;;;;;;;;;;;;25.34;48.92;100782.56;7388586;19;1381;-41
2023/08/10 12:50:33;;;;;;;;;;;;;;;25.34;49.06;100779.03;7387795;19;1291;-41
2023/08/10 12:53:01;;;;;;;;;;;;;;;25.33;49.20;100780.91;7386534;19;1452;-41
2023/08/10 12:55:30;;;;;;;;;;;;;;;25.35;49.03;100786.16;7386000;19;1386;-41
2023/08/10 12:57:58;;;;;;;;;;;;;;;25.33;49.31;100786.31;7387428;19;1295;-41
2023/08/10 13:00:26;;;;;;;;;;;;;;;25.34;48.98;100784.44;7389082;19;1817;-41